Time;durP1;ratioP1;P1;durP2;ratioP2;P2;SDS_P1;SDS_P2;PMS_P1;PMS_P2;Temp;Humidity;BMP_temperature;BMP_pressure;BME280_temperature;BME280_humidity;BME280_pressure;Samples;Min_cycle;Max_cycle;Signal;HPM_P1;HPM_P2
2022/02/18 00:00:48;;;;;;;27.35;12.93;;;;;;;8.43;83.93;149774.84;1784742;78;21028;-59
2022/02/18 00:03:16;;;;;;;20.88;11.57;;;;;;;8.45;83.52;149780.02;1782820;78;21304;-71
2022/02/18 00:05:44;;;;;;;19.23;11.10;;;;;;;8.52;83.21;149798.23;1779283;78;21068;-73
2022/02/18 00:08:11;;;;;;;22.73;10.63;;;;;;;8.55;82.64;149806.00;1777560;78;21090;-71
2022/02/18 00:10:39;;;;;;;14.85;8.65;;;;;;;8.60;81.92;149818.95;1780613;78;21079;-72
2022/02/18 00:13:06;;;;;;;16.37;8.40;;;;;;;8.66;80.56;149831.91;1786430;78;21024;-72
2022/02/18 00:15:34;;;;;;;14.33;6.70;;;;;;;8.71;78.45;149844.84;1785512;77;21477;-72
2022/02/18 00:18:05;;;;;;;13.80;7.33;;;;;;;8.81;76.36;149869.47;1785956;78;21068;-72
2022/02/18 00:20:34;;;;;;;11.50;5.72;;;;;;;8.92;74.35;149896.69;1784971;78;22337;-72
2022/02/18 00:23:02;;;;;;;8.68;4.75;;;;;;;9.00;70.21;149917.47;1786576;78;21060;-72
2022/02/18 00:25:29;;;;;;;9.33;5.17;;;;;;;9.09;69.77;149940.77;1785693;78;20996;-71
2022/02/18 00:28:01;;;;;;;10.75;4.75;;;;;;;9.16;68.16;149958.91;1785343;78;21402;-72
2022/02/18 00:30:30;;;;;;;9.08;4.22;;;;;;;9.21;68.23;149969.31;1782264;79;21390;-72
2022/02/18 00:32:57;;;;;;;7.12;3.58;;;;;;;9.24;67.42;149978.36;1783438;78;21044;-72
2022/02/18 00:35:24;;;;;;;6.83;3.47;;;;;;;9.27;66.78;149984.86;1785648;78;21016;-71
2022/02/18 00:37:55;;;;;;;7.12;3.30;;;;;;;9.27;66.10;149984.86;1785551;78;20966;-72
2022/02/18 00:40:20;;;;;;;7.10;2.52;;;;;;;9.28;65.50;149987.44;1784443;78;21086;-71
2022/02/18 00:42:47;;;;;;;7.70;2.58;;;;;;;9.29;65.33;149990.03;1772380;78;21021;-70
2022/02/18 00:45:14;;;;;;;2.50;1.70;;;;;;;9.27;64.09;149984.86;1784995;78;21047;-71
2022/02/18 00:47:43;;;;;;;2.35;1.30;;;;;;;9.26;64.05;149982.27;1785843;78;21011;-71
2022/02/18 00:50:11;;;;;;;3.77;1.40;;;;;;;9.25;63.87;149979.67;1783899;78;21016;-71
2022/02/18 00:52:39;;;;;;;6.10;1.20;;;;;;;9.23;63.76;149975.77;1779049;78;21596;-70
2022/02/18 00:55:07;;;;;;;1.72;0.95;;;;;;;9.22;63.94;149973.17;1776197;80;21043;-71
2022/02/18 00:57:36;;;;;;;2.60;1.00;;;;;;;9.20;63.52;149968.00;1779518;78;21688;-71
2022/02/18 01:00:08;;;;;;;2.50;0.80;;;;;;;9.18;63.71;149962.81;1784150;79;21025;-70
2022/02/18 01:02:35;;;;;;;1.17;0.78;;;;;;;9.17;63.72;149961.53;1781599;79;21076;-71
2022/02/18 01:05:04;;;;;;;2.98;0.90;;;;;;;9.15;63.83;149956.31;1782983;79;22409;-71
2022/02/18 01:07:31;;;;;;;2.27;0.90;;;;;;;9.14;64.04;149952.45;1782950;79;21056;-71
2022/02/18 01:09:58;;;;;;;2.12;0.88;;;;;;;9.10;64.19;149943.36;1793415;78;21024;-71
2022/02/18 01:12:25;;;;;;;5.10;0.88;;;;;;;9.07;64.16;149935.59;1780310;79;20996;-70
2022/02/18 01:14:52;;;;;;;1.47;0.85;;;;;;;9.03;64.27;149925.23;1784075;79;21028;-70
2022/02/18 01:17:20;;;;;;;4.78;0.80;;;;;;;9.00;64.43;149917.47;1747721;80;21924;-70
2022/02/18 01:19:49;;;;;;;1.25;0.62;;;;;;;8.98;64.53;149913.55;1785003;80;21017;-57
2022/02/18 01:22:15;;;;;;;0.65;0.55;;;;;;;8.96;64.81;149907.09;1784867;78;21079;-70
2022/02/18 01:24:43;;;;;;;2.85;0.70;;;;;;;8.94;64.92;149901.87;1782571;78;21037;-71
2022/02/18 01:27:10;;;;;;;2.02;0.60;;;;;;;8.91;65.07;149894.09;1768288;80;21453;-59
2022/02/18 01:29:39;;;;;;;2.37;0.70;;;;;;;8.91;65.18;149894.09;1771324;79;21822;-59
2022/02/18 01:32:10;;;;;;;0.90;0.57;;;;;;;8.88;65.15;149888.92;1783568;79;21027;-59
2022/02/18 01:34:37;;;;;;;0.78;0.65;;;;;;;8.87;65.40;149886.33;1778746;79;21000;-58
2022/02/18 01:37:04;;;;;;;3.08;0.70;;;;;;;8.88;65.59;149887.66;1778808;79;21735;-59
2022/02/18 01:39:31;;;;;;;0.65;0.57;;;;;;;8.87;65.79;149886.33;1784529;78;21008;-59
2022/02/18 01:41:58;;;;;;;2.15;0.80;;;;;;;8.88;65.98;149888.92;1782610;79;21137;-70
2022/02/18 01:44:44;;;;;;;1.30;0.80;;;;;;;8.88;66.05;149887.66;1779134;80;21338;-71
2022/02/18 01:47:17;;;;;;;2.08;0.98;;;;;;;8.89;66.14;149890.23;1781549;78;21024;-59
2022/02/18 01:49:44;;;;;;;1.77;0.80;;;;;;;8.88;66.45;149888.92;1777998;80;21044;-70
2022/02/18 01:52:11;;;;;;;1.60;0.80;;;;;;;8.90;66.58;149892.83;1785513;78;21003;-58
2022/02/18 01:54:37;;;;;;;2.45;0.80;;;;;;;8.89;66.68;149891.50;1783700;79;21122;-59
2022/02/18 01:57:05;;;;;;;4.53;1.00;;;;;;;8.90;66.82;149892.83;1779286;79;21103;-71
2022/02/18 01:59:33;;;;;;;1.32;0.80;;;;;;;8.92;66.87;149896.69;1752324;80;21055;-70
2022/02/18 02:02:01;;;;;;;3.05;0.90;;;;;;;8.92;66.99;149896.69;1778941;78;21126;-71
2022/02/18 02:04:31;;;;;;;2.08;1.07;;;;;;;8.92;66.97;149896.69;1782348;79;21568;-70
2022/02/18 02:07:04;;;;;;;4.37;1.70;;;;;;;8.93;67.04;149900.59;1755670;79;21104;-70
2022/02/18 02:09:33;;;;;;;6.78;2.05;;;;;;;8.96;66.92;149907.09;1779162;79;20937;-70
2022/02/18 02:12:00;;;;;;;5.05;1.70;;;;;;;8.95;66.95;149904.47;1781872;79;20977;-71
2022/02/18 02:14:27;;;;;;;3.08;1.17;;;;;;;8.95;66.95;149904.47;1777448;78;21527;-71
2022/02/18 02:16:54;;;;;;;2.47;0.82;;;;;;;8.93;66.96;149900.59;1783422;79;21469;-71
2022/02/18 02:19:22;;;;;;;21.62;1.72;;;;;;;8.93;67.06;149900.59;1778427;79;21461;-71
2022/02/18 02:21:52;;;;;;;15.63;1.62;;;;;;;8.92;66.97;149896.69;1784738;78;21020;-70
2022/02/18 02:24:20;;;;;;;10.43;1.25;;;;;;;8.91;67.04;149895.42;1778261;80;21020;-70
2022/02/18 02:26:47;;;;;;;3.47;0.65;;;;;;;8.91;66.98;149894.09;1777206;79;21016;-70
2022/02/18 02:29:14;;;;;;;4.72;0.80;;;;;;;8.88;67.10;149887.66;1783229;78;22119;-70
2022/02/18 02:31:43;;;;;;;1.05;0.70;;;;;;;8.86;67.16;149883.73;1779966;78;21124;-71
2022/02/18 02:34:11;;;;;;;2.37;0.70;;;;;;;8.81;67.27;149870.80;1776534;80;21016;-71
2022/02/18 02:36:38;;;;;;;1.82;0.88;;;;;;;8.77;67.59;149860.44;1780560;79;21425;-71
2022/02/18 02:39:05;;;;;;;1.12;0.90;;;;;;;8.77;67.64;149860.44;1783302;78;21063;-70
2022/02/18 02:41:34;;;;;;;4.78;0.95;;;;;;;8.74;67.89;149852.66;1780135;79;21538;-70
2022/02/18 02:44:01;;;;;;;4.33;0.82;;;;;;;8.73;67.99;149850.03;1784621;78;21122;-70
2022/02/18 02:46:28;;;;;;;8.90;1.20;;;;;;;8.70;68.14;149842.25;1776857;78;22299;-70
2022/02/18 02:48:56;;;;;;;1.90;0.82;;;;;;;8.67;68.20;149834.48;1759210;80;21340;-71
2022/02/18 02:51:24;;;;;;;1.62;0.80;;;;;;;8.65;68.29;149830.63;1783445;79;20996;-72
2022/02/18 02:53:52;;;;;;;2.60;0.90;;;;;;;8.65;68.51;149829.31;1785975;78;21927;-70
2022/02/18 02:56:18;;;;;;;1.35;0.75;;;;;;;8.66;68.51;149831.91;1781595;80;21528;-58
2022/02/18 02:58:46;;;;;;;6.00;0.95;;;;;;;8.62;68.70;149822.86;1782677;78;21462;-59
2022/02/18 03:01:15;;;;;;;2.85;0.90;;;;;;;8.62;68.81;149821.55;1786382;78;21265;-59
2022/02/18 03:03:46;;;;;;;4.83;0.90;;;;;;;8.60;68.85;149817.63;1758213;80;21008;-58
2022/02/18 03:06:13;;;;;;;4.05;0.98;;;;;;;8.57;68.94;149809.86;1784411;78;21016;-57
2022/02/18 03:08:40;;;;;;;2.70;0.70;;;;;;;8.54;69.07;149802.09;1786881;79;21119;-58
2022/02/18 03:11:24;;;;;;;1.30;0.60;;;;;;;8.52;69.17;149798.23;1784006;78;21469;-58
2022/02/18 03:14:09;;;;;;;3.65;0.80;;;;;;;8.49;69.51;149790.38;1786413;78;21047;-58
2022/02/18 03:16:39;;;;;;;1.90;0.85;;;;;;;8.45;69.79;149780.02;1785280;78;21442;-59
2022/02/18 03:19:07;;;;;;;4.03;0.80;;;;;;;8.41;70.12;149770.98;1766773;78;21043;-58
2022/02/18 03:21:34;;;;;;;2.47;0.90;;;;;;;8.35;70.50;149754.12;1785109;78;21545;-58
2022/02/18 03:24:02;;;;;;;3.22;0.55;;;;;;;8.27;70.95;149735.97;1792147;78;21558;-58
2022/02/18 03:26:29;;;;;;;3.12;0.90;;;;;;;8.21;71.28;149720.42;1781868;78;21201;-58
2022/02/18 03:29:01;;;;;;;1.15;0.62;;;;;;;8.14;71.72;149703.58;1785406;80;21044;-58
2022/02/18 03:31:45;;;;;;;1.98;0.80;;;;;;;8.08;72.40;149686.78;1747232;78;21502;-58
2022/02/18 03:34:13;;;;;;;1.87;1.00;;;;;;;8.02;72.99;149672.52;1781943;80;21150;-59
2022/02/18 03:36:41;;;;;;;1.77;0.75;;;;;;;7.97;73.44;149660.84;1784914;78;21031;-59
2022/02/18 03:39:09;;;;;;;5.17;0.90;;;;;;;7.91;74.39;149645.31;1782879;78;21627;-59
2022/02/18 03:41:37;;;;;;;2.55;0.95;;;;;;;7.85;74.96;149631.06;1783441;78;20933;-58
2022/02/18 03:44:08;;;;;;;3.10;0.90;;;;;;;7.78;75.64;149612.95;1786293;78;21621;-58
2022/02/18 03:46:37;;;;;;;2.98;0.90;;;;;;;7.74;76.15;149602.59;1780766;78;21738;-60
2022/02/18 03:49:05;;;;;;;1.47;0.78;;;;;;;7.69;76.95;149590.94;1778554;78;21032;-58
2022/02/18 03:51:32;;;;;;;1.98;0.70;;;;;;;7.65;77.55;149579.27;1785203;78;21071;-58
2022/02/18 03:53:59;;;;;;;1.50;1.02;;;;;;;7.61;78.54;149570.19;1765831;79;21033;-58
2022/02/18 03:56:26;;;;;;;1.67;1.10;;;;;;;7.56;79.22;149557.25;1765625;79;21004;-58
2022/02/18 03:58:54;;;;;;;2.10;1.05;;;;;;;7.52;80.89;149546.91;1767084;79;21480;-57
2022/02/18 04:01:22;;;;;;;1.50;0.95;;;;;;;7.45;81.98;149531.38;1751751;79;21013;-58
2022/02/18 04:03:53;;;;;;;2.55;1.32;;;;;;;7.37;84.30;149510.62;1767309;79;21049;-58
2022/02/18 04:06:22;;;;;;;3.67;1.22;;;;;;;7.29;84.69;149489.94;1763528;79;21055;-58
2022/02/18 04:08:52;;;;;;;3.05;1.17;;;;;;;7.21;85.72;149470.52;1768590;79;21041;-57
2022/02/18 04:11:33;;;;;;;1.67;1.27;;;;;;;7.16;85.88;149457.58;1757823;79;21127;-58
2022/02/18 04:14:01;;;;;;;3.27;1.20;;;;;;;7.10;86.52;149443.33;1768764;79;21093;-58
2022/02/18 04:16:28;;;;;;;2.17;1.35;;;;;;;7.05;87.78;149430.41;1770812;79;21056;-58
2022/02/18 04:18:57;;;;;;;5.45;1.47;;;;;;;7.00;88.95;149417.47;1766252;79;21780;-57
2022/02/18 04:21:26;;;;;;;3.47;1.57;;;;;;;6.97;89.33;149410.97;1766124;79;21047;-58
2022/02/18 04:23:54;;;;;;;3.65;1.20;;;;;;;6.93;89.97;149400.63;1759691;79;21201;-59
2022/02/18 04:26:21;;;;;;;2.58;1.35;;;;;;;6.90;91.18;149391.56;1767384;79;21096;-59
2022/02/18 04:28:50;;;;;;;2.62;1.40;;;;;;;6.85;91.80;149381.22;1770233;79;21076;-58
2022/02/18 04:31:17;;;;;;;3.85;1.40;;;;;;;6.80;92.95;149368.28;1767231;79;21072;-59
2022/02/18 04:33:44;;;;;;;1.75;1.25;;;;;;;6.73;94.43;149350.13;1768030;79;21041;-59
2022/02/18 04:36:11;;;;;;;2.15;1.30;;;;;;;6.67;94.92;149334.62;1770052;79;21976;-58
2022/02/18 04:38:39;;;;;;;3.35;1.42;;;;;;;6.59;95.97;149316.53;1770807;79;21222;-58
2022/02/18 04:41:19;;;;;;;3.35;1.30;;;;;;;6.58;95.94;149312.63;1769548;78;21102;-59
2022/02/18 04:43:46;;;;;;;4.80;1.57;;;;;;;6.55;96.40;149306.19;1766402;79;21029;-59
2022/02/18 04:46:13;;;;;;;2.45;1.20;;;;;;;6.54;96.62;149303.59;1768369;79;21485;-59
2022/02/18 04:48:40;;;;;;;2.22;1.50;;;;;;;6.52;96.80;149297.11;1767985;79;21127;-59
2022/02/18 04:51:07;;;;;;;1.98;1.37;;;;;;;6.53;96.87;149301.02;1768015;79;21052;-58
2022/02/18 04:53:34;;;;;;;3.35;1.40;;;;;;;6.52;96.99;149298.44;1771394;79;22026;-58
2022/02/18 04:56:04;;;;;;;5.15;2.12;;;;;;;6.53;97.17;149299.69;1778868;79;21039;-60
2022/02/18 04:58:31;;;;;;;2.25;1.40;;;;;;;6.54;97.28;149302.28;1777096;80;21306;-59
2022/02/18 05:00:58;;;;;;;2.50;1.40;;;;;;;6.55;97.36;149304.86;1778137;79;21441;-58
2022/02/18 05:03:28;;;;;;;2.72;1.45;;;;;;;6.58;97.60;149312.63;1781947;79;21017;-59
2022/02/18 05:05:54;;;;;;;5.10;1.82;;;;;;;6.59;97.63;149316.53;1776934;79;20976;-59
2022/02/18 05:08:21;;;;;;;2.08;1.27;;;;;;;6.59;97.69;149316.53;1775052;79;21044;-59
2022/02/18 05:10:49;;;;;;;1.95;1.50;;;;;;;6.61;97.70;149320.38;1779563;79;21025;-59
2022/02/18 05:13:18;;;;;;;3.58;1.82;;;;;;;6.61;97.73;149320.38;1781821;79;22210;-60
2022/02/18 05:15:45;;;;;;;3.65;1.90;;;;;;;6.62;97.81;149322.97;1780897;79;21550;-59
2022/02/18 05:18:12;;;;;;;5.05;2.20;;;;;;;6.62;97.72;149321.69;1781090;79;21036;-58
2022/02/18 05:20:39;;;;;;;2.87;1.60;;;;;;;6.59;97.82;149316.53;1781022;79;21027;-59
2022/02/18 05:23:08;;;;;;;3.58;1.62;;;;;;;6.59;97.89;149315.20;1780736;79;21767;-71
2022/02/18 05:25:34;;;;;;;3.30;1.40;;;;;;;6.61;98.08;149320.38;1782062;79;22300;-71
2022/02/18 05:28:04;;;;;;;3.33;1.70;;;;;;;6.62;98.13;149321.69;1779246;79;21019;-70
2022/02/18 05:30:33;;;;;;;2.45;1.80;;;;;;;6.59;98.15;149316.53;1771402;78;21764;-70
2022/02/18 05:33:00;;;;;;;3.30;1.62;;;;;;;6.56;98.16;149308.77;1774015;79;20989;-71
2022/02/18 05:35:40;;;;;;;3.37;2.00;;;;;;;6.55;98.36;149306.19;1779213;79;21487;-70
2022/02/18 05:38:08;;;;;;;6.53;2.55;;;;;;;6.55;98.65;149306.19;1777290;79;21114;-58
2022/02/18 05:40:36;;;;;;;2.52;2.00;;;;;;;6.53;99.29;149301.02;1767856;80;21064;-61
2022/02/18 05:43:04;;;;;;;3.58;2.20;;;;;;;6.51;99.55;149294.53;1782864;79;21355;-58
2022/02/18 05:45:32;;;;;;;4.78;2.40;;;;;;;6.48;99.80;149288.03;1780415;79;21016;-58
2022/02/18 05:47:59;;;;;;;4.15;2.00;;;;;;;6.45;100.00;149280.28;1779767;79;21005;-58
2022/02/18 05:50:26;;;;;;;5.17;2.40;;;;;;;6.47;100.00;149284.19;1776677;79;21149;-58
2022/02/18 05:52:54;;;;;;;3.72;2.30;;;;;;;6.48;100.00;149288.03;1774833;80;20961;-59
2022/02/18 05:55:20;;;;;;;4.70;2.20;;;;;;;6.48;100.00;149288.03;1777853;79;21042;-59
2022/02/18 05:57:47;;;;;;;4.92;2.22;;;;;;;6.48;100.00;149286.77;1781652;79;21083;-58
2022/02/18 06:00:15;;;;;;;6.37;2.10;;;;;;;6.45;100.00;149280.28;1777274;79;21039;-58
2022/02/18 06:02:43;;;;;;;4.83;2.60;;;;;;;6.45;100.00;149280.28;1778559;80;21087;-58
2022/02/18 06:05:10;;;;;;;4.17;2.17;;;;;;;6.48;100.00;149286.77;1777855;79;21040;-72
2022/02/18 06:07:44;;;;;;;3.52;2.20;;;;;;;6.48;100.00;149288.03;1778968;79;21047;-60
2022/02/18 06:10:12;;;;;;;4.90;2.20;;;;;;;6.50;100.00;149293.20;1778241;79;20949;-60
2022/02/18 06:12:39;;;;;;;6.50;2.65;;;;;;;6.52;100.00;149298.44;1782320;79;21022;-60
2022/02/18 06:15:08;;;;;;;4.28;2.77;;;;;;;6.56;100.00;149308.77;1776898;79;22342;-60
2022/02/18 06:17:44;;;;;;;6.70;2.70;;;;;;;6.61;100.00;149319.11;1781937;79;21053;-59
2022/02/18 06:20:08;;;;;;;5.97;2.55;;;;;;;6.63;100.00;149325.59;1780000;79;21028;-59
2022/02/18 06:22:36;;;;;;;3.90;2.20;;;;;;;6.67;100.00;149335.94;1777659;80;21508;-59
2022/02/18 06:25:06;;;;;;;4.80;2.25;;;;;;;6.72;100.00;149347.55;1778507;79;20901;-58
2022/02/18 06:27:35;;;;;;;2.75;1.90;;;;;;;6.75;100.00;149355.36;1766701;79;21782;-59
2022/02/18 06:30:04;;;;;;;5.75;2.40;;;;;;;6.79;100.00;149365.69;1778225;79;20913;-59
2022/02/18 06:32:31;;;;;;;2.70;1.87;;;;;;;6.82;99.64;149372.14;1778897;78;21056;-59
2022/02/18 06:34:58;;;;;;;3.55;1.95;;;;;;;6.86;99.03;149382.53;1778143;79;21000;-59
2022/02/18 06:37:25;;;;;;;4.47;1.87;;;;;;;6.88;98.51;149387.70;1776441;79;21352;-59
2022/02/18 06:39:52;;;;;;;3.27;1.98;;;;;;;6.88;97.58;149388.97;1779189;79;21125;-57
2022/02/18 06:42:19;;;;;;;2.98;1.80;;;;;;;6.90;96.64;149391.56;1779463;79;21043;-60
2022/02/18 06:44:46;;;;;;;2.75;1.80;;;;;;;6.90;96.31;149392.87;1779126;79;21039;-60
2022/02/18 06:47:12;;;;;;;3.37;2.00;;;;;;;6.90;95.83;149392.87;1776587;79;21553;-60
2022/02/18 06:49:44;;;;;;;3.55;1.70;;;;;;;6.93;95.68;149399.31;1780892;79;22153;-58
2022/02/18 06:52:09;;;;;;;3.12;2.12;;;;;;;6.95;95.01;149404.48;1780153;79;21517;-59
2022/02/18 06:54:39;;;;;;;3.47;1.98;;;;;;;6.97;94.35;149409.70;1781680;78;21036;-72
2022/02/18 06:57:05;;;;;;;3.77;2.12;;;;;;;6.98;94.13;149413.56;1779953;78;20952;-71
2022/02/18 06:59:32;;;;;;;4.72;2.47;;;;;;;7.01;93.48;149421.31;1779792;79;21020;-62
2022/02/18 07:01:59;;;;;;;6.08;3.12;;;;;;;7.01;92.13;149420.05;1761380;80;21063;-72
2022/02/18 07:04:28;;;;;;;6.30;3.08;;;;;;;7.01;91.95;149420.05;1781496;79;21202;-61
2022/02/18 07:06:56;;;;;;;7.42;4.22;;;;;;;7.01;91.64;149420.05;1779156;78;21486;-60
2022/02/18 07:09:23;;;;;;;9.08;4.30;;;;;;;7.01;91.47;149421.31;1784664;78;21024;-59
2022/02/18 07:11:50;;;;;;;9.15;3.87;;;;;;;7.01;91.08;149421.31;1780379;78;21021;-59
2022/02/18 07:14:17;;;;;;;6.80;3.30;;;;;;;7.02;90.48;149423.91;1791241;78;21498;-71
2022/02/18 07:16:44;;;;;;;5.03;3.10;;;;;;;7.05;90.38;149430.41;1781590;78;20977;-71
2022/02/18 07:19:12;;;;;;;6.35;3.00;;;;;;;7.08;89.91;149438.16;1793925;78;20945;-73
2022/02/18 07:21:39;;;;;;;6.47;2.58;;;;;;;7.13;89.12;149451.09;1779374;78;21107;-72
2022/02/18 07:24:09;;;;;;;3.75;2.05;;;;;;;7.16;88.83;149458.84;1780143;78;21087;-60
2022/02/18 07:26:37;;;;;;;4.12;3.00;;;;;;;7.19;88.07;149464.06;1779205;78;21369;-60
2022/02/18 07:29:05;;;;;;;4.28;2.47;;;;;;;7.17;87.51;149461.44;1781416;78;21435;-60
2022/02/18 07:31:32;;;;;;;3.92;2.50;;;;;;;7.14;87.40;149453.67;1780854;78;21045;-61
2022/02/18 07:33:59;;;;;;;6.08;2.80;;;;;;;7.13;86.50;149449.81;1752182;80;21008;-61
2022/02/18 07:36:26;;;;;;;4.08;2.27;;;;;;;7.07;85.69;149434.25;1782323;78;21381;-59
2022/02/18 07:38:53;;;;;;;5.58;2.70;;;;;;;7.04;85.79;149427.81;1778966;78;21063;-60
2022/02/18 07:41:20;;;;;;;6.75;2.55;;;;;;;7.01;85.44;149420.05;1778612;78;22169;-60
2022/02/18 07:43:47;;;;;;;4.53;2.40;;;;;;;6.96;84.90;149408.39;1778123;79;21519;-60
2022/02/18 07:46:14;;;;;;;4.67;2.25;;;;;;;6.92;84.71;149398.05;1785015;78;21430;-60
2022/02/18 07:49:12;;;;;;;6.75;2.98;;;;;;;6.88;84.65;149387.70;1786853;78;21047;-59
2022/02/18 07:51:42;;;;;;;4.47;2.67;;;;;;;6.87;84.84;149386.37;1785409;78;21055;-58
2022/02/18 07:54:09;;;;;;;3.67;2.55;;;;;;;6.91;84.97;149395.47;1779021;78;21133;-60
2022/02/18 07:56:36;;;;;;;4.25;1.92;;;;;;;6.98;84.66;149412.30;1777520;78;21068;-59
2022/02/18 07:59:03;;;;;;;4.95;2.17;;;;;;;7.05;83.22;149430.41;1777832;78;22069;-59
2022/02/18 08:01:30;;;;;;;7.10;2.77;;;;;;;7.14;82.38;149453.67;1777707;78;21140;-60
2022/02/18 08:03:57;;;;;;;13.43;8.48;;;;;;;7.21;82.28;149469.25;1780259;79;21036;-59
2022/02/18 08:06:35;;;;;;;11.73;4.85;;;;;;;7.31;82.62;149495.11;1783424;79;21466;-59
2022/02/18 08:09:28;;;;;;;84.22;48.83;;;;;;;7.43;81.49;149526.20;1776149;78;21103;-60
2022/02/18 08:11:55;;;;;;;54.67;30.82;;;;;;;7.56;81.06;149557.25;1777697;78;21010;-60
2022/02/18 08:14:24;;;;;;;73.28;40.78;;;;;;;7.71;79.96;149596.11;1780073;78;21588;-59
2022/02/18 08:16:51;;;;;;;60.50;31.45;;;;;;;7.83;77.58;149624.56;1780297;79;21538;-60
2022/02/18 08:19:23;;;;;;;86.08;48.13;;;;;;;7.85;75.67;149629.80;1772321;78;21511;-60
2022/02/18 08:21:48;;;;;;;17.10;7.42;;;;;;;7.84;75.20;149627.16;1781966;79;21074;-60
2022/02/18 08:24:18;;;;;;;68.05;39.23;;;;;;;7.81;73.53;149619.39;1783174;78;21415;-60
2022/02/18 08:26:51;;;;;;;30.85;17.20;;;;;;;7.80;72.35;149616.81;1775980;78;21052;-59
2022/02/18 08:29:21;;;;;;;48.63;21.73;;;;;;;7.88;70.70;149637.56;1780992;78;21078;-60
2022/02/18 08:31:48;;;;;;;96.50;49.75;;;;;;;7.94;69.49;149653.08;1783696;78;21548;-60
2022/02/18 08:34:15;;;;;;;25.43;14.10;;;;;;;7.93;69.17;149650.50;1772896;78;21138;-71
2022/02/18 08:36:43;;;;;;;22.62;13.08;;;;;;;7.90;68.99;149642.73;1772507;78;21034;-71
2022/02/18 08:39:10;;;;;;;10.38;6.83;;;;;;;7.90;69.73;149642.73;1775041;78;21139;-72
2022/02/18 08:41:37;;;;;;;49.88;29.70;;;;;;;7.95;68.94;149655.67;1776701;78;21027;-72
2022/02/18 08:44:04;;;;;;;69.30;41.18;;;;;;;8.03;69.53;149675.11;1769538;78;21593;-71
2022/02/18 08:46:32;;;;;;;16.75;9.30;;;;;;;8.10;68.31;149691.95;1778644;79;20992;-70
2022/02/18 08:49:00;;;;;;;35.38;21.20;;;;;;;8.13;67.80;149699.72;1784196;79;21139;-60
2022/02/18 08:51:28;;;;;;;18.98;11.30;;;;;;;8.15;67.24;149704.89;1778213;79;21048;-60
2022/02/18 08:53:54;;;;;;;7.92;2.60;;;;;;;8.18;66.57;149712.66;1778523;78;21005;-60
2022/02/18 08:56:21;;;;;;;65.65;36.68;;;;;;;8.22;65.98;149723.02;1772751;79;21150;-60
2022/02/18 08:58:50;;;;;;;87.85;50.88;;;;;;;8.26;65.79;149733.38;1766982;79;21163;-60
2022/02/18 09:01:17;;;;;;;8.53;5.42;;;;;;;8.31;65.97;149746.38;1771965;79;21111;-70
2022/02/18 09:03:44;;;;;;;37.42;21.00;;;;;;;8.32;64.26;149747.62;1761684;79;21053;-71
2022/02/18 09:06:10;;;;;;;18.32;9.38;;;;;;;8.29;64.32;149741.19;1764254;79;21664;-59
2022/02/18 09:08:38;;;;;;;49.90;26.55;;;;;;;8.30;64.93;149743.78;1773993;79;21883;-61
2022/02/18 09:11:05;;;;;;;8.40;4.17;;;;;;;8.33;65.01;149750.22;1766656;79;21144;-61
2022/02/18 09:13:33;;;;;;;55.28;32.20;;;;;;;8.38;64.97;149761.89;1770679;79;21337;-61
2022/02/18 09:16:00;;;;;;;79.03;45.98;;;;;;;8.36;64.23;149756.72;1767703;79;21029;-63
2022/02/18 09:18:42;;;;;;;59.83;37.15;;;;;;;8.33;64.35;149748.95;1765744;79;21696;-61
2022/02/18 09:21:10;;;;;;;17.23;8.83;;;;;;;8.33;64.89;149748.95;1760459;79;21068;-61
2022/02/18 09:23:37;;;;;;;14.50;5.05;;;;;;;8.33;64.66;149750.22;1764867;79;21051;-60
2022/02/18 09:26:03;;;;;;;22.82;11.25;;;;;;;8.36;64.31;149757.98;1762946;79;21208;-59
2022/02/18 09:28:30;;;;;;;55.48;32.55;;;;;;;8.44;64.92;149777.44;1767418;79;21060;-61
2022/02/18 09:30:58;;;;;;;17.90;8.23;;;;;;;8.45;63.49;149781.34;1764114;79;21072;-61
2022/02/18 09:33:25;;;;;;;70.42;42.03;;;;;;;8.41;63.40;149769.66;1768296;78;21120;-61
2022/02/18 09:35:54;;;;;;;11.03;4.45;;;;;;;8.43;63.74;149774.84;1770849;79;21318;-61
2022/02/18 09:38:21;;;;;;;90.20;52.35;;;;;;;8.49;62.23;149789.11;1767426;79;21213;-59
2022/02/18 09:40:48;;;;;;;90.10;53.00;;;;;;;8.40;62.01;149768.39;1766672;79;21100;-60
2022/02/18 09:43:19;;;;;;;45.70;21.07;;;;;;;8.34;61.66;149751.53;1770865;79;21013;-59
2022/02/18 09:45:45;;;;;;;34.20;19.52;;;;;;;8.33;61.98;149748.95;1768437;79;21091;-62
2022/02/18 09:48:14;;;;;;;27.25;16.62;;;;;;;8.38;62.10;149761.89;1769105;79;21039;-59
2022/02/18 09:50:42;;;;;;;32.60;16.23;;;;;;;8.47;60.97;149785.19;1768758;79;21108;-60
2022/02/18 09:53:09;;;;;;;58.17;32.93;;;;;;;8.56;60.97;149808.59;1766360;79;22128;-60
2022/02/18 09:55:39;;;;;;;65.55;39.27;;;;;;;8.60;58.91;149818.95;1772361;79;21802;-60
2022/02/18 09:58:07;;;;;;;108.80;59.55;;;;;;;8.60;58.77;149817.63;1764647;79;21147;-60
2022/02/18 10:00:35;;;;;;;47.75;22.77;;;;;;;8.59;58.04;149815.05;1765932;79;21101;-61
2022/02/18 10:03:02;;;;;;;43.63;21.10;;;;;;;8.57;57.77;149811.19;1736910;81;21034;-61
2022/02/18 10:05:29;;;;;;;33.80;20.82;;;;;;;8.61;57.79;149820.22;1724292;81;21184;-61
2022/02/18 10:08:11;;;;;;;31.15;16.07;;;;;;;8.67;57.71;149834.48;1724733;80;21072;-60
2022/02/18 10:10:40;;;;;;;33.42;20.97;;;;;;;8.74;58.06;149852.66;1700803;82;21788;-59
2022/02/18 10:13:35;;;;;;;11.33;5.55;;;;;;;8.84;58.07;149878.56;1777853;79;21614;-59
2022/02/18 10:16:16;;;;;;;4.40;1.62;;;;;;;8.95;57.46;149904.47;1768039;79;21448;-60
2022/02/18 10:19:13;;;;;;;45.58;23.38;;;;;;;9.04;56.41;149927.81;1761000;80;20913;-60
2022/02/18 10:21:51;;;;;;;11.55;6.97;;;;;;;9.05;55.32;149930.41;1769542;79;20929;-62
2022/02/18 10:24:20;;;;;;;2.35;1.62;;;;;;;8.98;52.83;149912.28;1730374;79;21481;-60
2022/02/18 10:26:50;;;;;;;34.60;19.10;;;;;;;8.86;53.49;149882.47;1768213;79;21093;-60
2022/02/18 10:29:32;;;;;;;40.73;22.22;;;;;;;8.79;54.39;149864.30;1773554;79;20904;-60
2022/02/18 10:32:15;;;;;;;42.00;24.80;;;;;;;8.82;55.09;149873.38;1766699;79;21112;-59
2022/02/18 10:34:53;;;;;;;48.83;24.77;;;;;;;8.92;54.42;149896.69;1762332;79;35396;-60
2022/02/18 10:37:22;;;;;;;17.60;9.03;;;;;;;8.98;54.28;149913.55;1763559;79;21236;-60
2022/02/18 10:39:49;;;;;;;6.60;1.90;;;;;;;8.98;53.62;149913.55;1764079;79;20996;-59
2022/02/18 10:42:17;;;;;;;5.22;1.90;;;;;;;8.96;53.17;149907.09;1765470;79;21053;-59
2022/02/18 10:44:44;;;;;;;12.60;7.10;;;;;;;8.93;53.01;149899.28;1767427;79;21080;-60
2022/02/18 10:47:21;;;;;;;36.80;22.65;;;;;;;8.86;53.31;149882.47;1758941;79;21032;-61
2022/02/18 10:49:48;;;;;;;40.45;20.12;;;;;;;8.85;52.65;149881.16;1768028;79;21128;-59
2022/02/18 10:52:17;;;;;;;30.62;17.32;;;;;;;8.89;52.49;149891.50;1757391;79;21515;-60
2022/02/18 10:54:50;;;;;;;35.23;21.23;;;;;;;8.98;52.66;149913.55;1761487;79;21570;-60
2022/02/18 10:57:23;;;;;;;21.02;12.28;;;;;;;9.15;52.26;149955.03;1767006;79;21063;-60
2022/02/18 10:59:51;;;;;;;63.80;33.30;;;;;;;9.27;51.84;149986.13;1759448;79;22090;-59
2022/02/18 11:02:42;;;;;;;21.57;11.63;;;;;;;9.32;51.86;149997.81;1762357;79;22036;-60
2022/02/18 11:05:29;;;;;;;32.95;18.27;;;;;;;9.31;51.61;149995.22;1761574;79;20882;-59
2022/02/18 11:07:57;;;;;;;38.78;19.48;;;;;;;9.27;51.04;149984.86;1749662;79;21040;-61
2022/02/18 11:10:34;;;;;;;32.33;19.37;;;;;;;9.19;50.16;149964.12;1764130;79;21103;-59
2022/02/18 11:13:01;;;;;;;52.15;31.07;;;;;;;9.16;50.76;149958.91;1763311;79;21136;-59
2022/02/18 11:15:32;;;;;;;60.25;38.02;;;;;;;9.19;50.33;149964.12;1760931;79;21093;-59
2022/02/18 11:17:59;;;;;;;21.97;14.07;;;;;;;9.25;49.57;149979.67;1759954;79;21084;-61
2022/02/18 11:20:26;;;;;;;18.05;9.75;;;;;;;9.31;48.20;149996.53;1755181;79;21019;-59
2022/02/18 11:22:55;;;;;;;16.02;7.45;;;;;;;9.39;48.18;150014.67;1761600;79;21633;-59
2022/02/18 11:25:22;;;;;;;38.78;20.95;;;;;;;9.45;48.31;150030.22;1756655;79;21064;-60
2022/02/18 11:27:53;;;;;;;8.03;5.05;;;;;;;9.49;47.02;150039.31;1758407;79;22112;-61
2022/02/18 11:30:19;;;;;;;23.50;9.05;;;;;;;9.50;47.33;150041.91;1742918;79;21518;-59
2022/02/18 11:33:21;;;;;;;25.40;12.63;;;;;;;9.52;47.96;150047.09;1759643;79;21084;-59
2022/02/18 11:35:59;;;;;;;14.25;7.35;;;;;;;9.55;47.98;150054.86;1760865;79;21079;-61
2022/02/18 11:38:53;;;;;;;27.58;18.27;;;;;;;9.55;49.00;150054.86;1755903;79;21017;-60